Air Resources Laboratory banner image
Air Resources Laboratory web site National Oceanic and Atmospheric Administration (NOAA)

nv metar


KBAM 191255Z AUTO 15005KT 10SM CLR 07/M09 A3018 RMK AO1=
KDRA 191255Z AUTO 09004KT 10SM CLR 26/07 A3001 RMK AO2 SLP105 T02560072 $=
KEKO 191256Z AUTO 00000KT 8SM CLR 09/00 A3024 RMK AO2 SLP194 T00890000=
KELY 191253Z AUTO 17010KT 10SM CLR 07/M04 A3033 RMK AO2 SLP179 T00671044=
KHTH 191255Z AUTO 19003KT 10SM FEW045 18/01 A3014 RMK A01=
KINS 191258Z AUTO 00000KT 10SM CLR 25/05 A3000 RMK AO2 SLP103 T02490046 $=
KLAS 191256Z 00000KT 10SM FEW140 33/09 A2991 RMK AO2 SLP094 T03280094=
KLOL 191253Z AUTO 11004KT 8SM CLR 08/M04 A3012 RMK AO2 SLP164 T00831039=
KLSV 191258Z AUTO 00000KT 10SM CLR 31/12 A2989 RMK AO2 SLP092 T03100123=
KNFL 191256Z AUTO 16008KT 10SM CLR 14/M02 A3012 RMK AO2 SLP166 T01441022=
KP68 191253Z AUTO 19006KT 09/M06 A3028 RMK AO1 SLP174 T00891056=
KRNO 191255Z 27003KT 10SM CLR 18/02 A3018 RMK AO2 SLP159 FU ALF DSNT N THRU E
 T01780017=
KTPH 191256Z AUTO 36011KT 10SM CLR 17/M05 A3022 RMK AO2 SLP150 T01671050=
KVGT 191253Z 28003KT 10SM CLR 31/09 A2991 RMK AO2 SLP111 T03110089=
KWMC 191256Z AUTO 15006KT 7SM CLR 09/M04 A3015 RMK AO2 SLP166 T00891039=